createdAt,value
2023-02-28T00:01:09.156Z,4.07
2023-02-28T00:06:06.991Z,4.00
2023-02-28T00:11:09.837Z,4.15
2023-02-28T00:16:10.235Z,4.38
2023-02-28T00:21:07.257Z,4.97
2023-02-28T00:26:04.068Z,5.30
2023-02-28T00:31:01.157Z,4.88
2023-02-28T00:36:08.877Z,4.70
2023-02-28T00:41:06.121Z,4.63
2023-02-28T00:46:03.448Z,4.63
2023-02-28T00:50:59.923Z,4.22
2023-02-28T00:55:56.365Z,4.35
2023-02-28T01:00:54.625Z,3.97
2023-02-28T01:05:51.499Z,3.90
2023-02-28T01:10:48.576Z,4.07
2023-02-28T01:15:53.701Z,3.95
2023-02-28T01:20:50.243Z,4.13
2023-02-28T01:25:46.740Z,3.80
2023-02-28T01:30:43.283Z,3.65
2023-02-28T01:35:39.719Z,4.60
2023-02-28T01:40:36.111Z,4.18
2023-02-28T01:45:36.567Z,3.78
2023-02-28T01:50:40.081Z,4.40
2023-02-28T01:55:38.122Z,3.75
2023-02-28T02:00:34.563Z,4.15
2023-02-28T02:05:32.771Z,4.13
2023-02-28T02:10:41.843Z,4.25
2023-02-28T02:15:45.497Z,4.25
2023-02-28T02:21:09.817Z,3.95
2023-02-28T02:26:43.972Z,4.32
2023-02-28T02:31:53.672Z,4.85
2023-02-28T02:37:16.290Z,4.85
2023-02-28T02:42:20.053Z,4.20
2023-02-28T02:47:20.759Z,4.75
2023-02-28T02:52:22.146Z,4.47
2023-02-28T02:57:30.304Z,5.47
2023-02-28T03:02:29.274Z,4.68
2023-02-28T03:07:26.502Z,4.88
2023-02-28T03:12:29.396Z,4.70
2023-02-28T03:17:57.888Z,5.05
2023-02-28T03:23:15.892Z,4.93
2023-02-28T03:28:37.485Z,5.03
2023-02-28T03:33:40.313Z,6.20
2023-02-28T03:38:45.958Z,5.50
2023-02-28T03:43:49.556Z,6.40
2023-02-28T03:48:54.524Z,5.78
2023-02-28T03:54:03.022Z,6.13
2023-02-28T03:59:14.034Z,6.60
2023-02-28T04:04:12.396Z,6.28
2023-02-28T04:14:08.352Z,7.55
2023-02-28T04:19:06.653Z,6.93
2023-02-28T04:24:04.102Z,6.53
2023-02-28T04:29:01.528Z,6.88
2023-02-28T04:33:58.256Z,7.25
2023-02-28T04:38:54.778Z,7.20
2023-02-28T04:43:54.375Z,7.60
2023-02-28T04:48:50.843Z,7.72
2023-02-28T04:53:49.288Z,7.72
2023-02-28T04:58:46.105Z,7.80
2023-02-28T05:03:43.235Z,8.23
2023-02-28T05:08:40.464Z,7.95
2023-02-28T05:13:36.897Z,8.05
2023-02-28T05:18:33.305Z,8.77
2023-02-28T05:23:30.233Z,8.25
2023-02-28T05:28:26.756Z,8.27
2023-02-28T05:33:23.140Z,9.25
2023-02-28T05:38:19.636Z,9.20
2023-02-28T05:43:16.023Z,9.50
2023-02-28T05:48:12.412Z,9.38
2023-02-28T05:53:09.130Z,9.00
2023-02-28T05:58:05.598Z,10.30
2023-02-28T06:03:03.170Z,9.40
2023-02-28T06:07:59.692Z,9.88
2023-02-28T06:12:56.063Z,9.32
2023-02-28T06:17:53.230Z,10.27
2023-02-28T06:22:51.659Z,10.05
2023-02-28T06:27:49.230Z,10.55
2023-02-28T06:32:45.686Z,11.35
2023-02-28T06:37:42.846Z,11.18
2023-02-28T06:42:39.267Z,11.10
2023-02-28T06:47:37.208Z,11.13
2023-02-28T06:52:37.053Z,11.70
2023-02-28T06:57:35.597Z,11.05
2023-02-28T07:02:32.648Z,11.43
2023-02-28T07:07:29.102Z,11.43
2023-02-28T07:12:25.560Z,11.18
2023-02-28T07:17:21.995Z,11.65
2023-02-28T07:22:18.441Z,12.55
2023-02-28T07:27:24.719Z,12.25
2023-02-28T07:32:21.326Z,11.90
2023-02-28T07:37:17.743Z,11.63
2023-02-28T07:42:14.146Z,12.40
2023-02-28T07:47:11.124Z,18.70
2023-02-28T07:52:08.019Z,24.40
2023-02-28T07:57:04.392Z,23.63
2023-02-28T08:02:00.890Z,12.13
2023-02-28T08:06:57.389Z,12.60
2023-02-28T08:11:53.779Z,11.82
2023-02-28T08:16:50.199Z,11.75
2023-02-28T08:21:46.622Z,11.63
2023-02-28T08:26:43.099Z,12.55
2023-02-28T08:31:39.836Z,12.10
2023-02-28T08:36:36.487Z,11.55
2023-02-28T08:41:33.268Z,11.77
2023-02-28T08:46:29.670Z,10.60
2023-02-28T08:51:29.210Z,10.57
2023-02-28T08:56:26.197Z,11.68
2023-02-28T09:01:28.502Z,9.30
2023-02-28T09:11:22.421Z,8.05
2023-02-28T09:16:18.914Z,7.97
2023-02-28T09:21:18.642Z,7.05
2023-02-28T09:26:20.688Z,6.70
2023-02-28T09:31:23.242Z,7.03
2023-02-28T09:41:18.024Z,6.72
2023-02-28T09:46:30.489Z,6.57
2023-02-28T09:52:00.582Z,6.93
2023-02-28T09:57:06.700Z,6.80
2023-02-28T10:02:53.707Z,6.38
2023-02-28T10:08:06.399Z,5.85
2023-02-28T10:13:07.462Z,6.03
2023-02-28T10:18:13.808Z,5.75
2023-02-28T10:23:18.030Z,6.45
2023-02-28T10:28:17.391Z,6.60
2023-02-28T10:33:24.342Z,7.35
2023-02-28T10:38:25.718Z,6.32
2023-02-28T10:43:23.952Z,6.13
2023-02-28T10:48:20.352Z,6.20
2023-02-28T10:53:25.802Z,6.43
2023-02-28T10:58:27.736Z,6.93
2023-02-28T11:03:35.723Z,6.27
2023-02-28T11:08:32.239Z,6.10
2023-02-28T11:13:38.800Z,6.32
2023-02-28T11:18:55.990Z,6.13
2023-02-28T11:23:59.469Z,6.97
2023-02-28T11:29:11.855Z,6.30
2023-02-28T11:34:25.995Z,6.10
2023-02-28T11:39:22.480Z,7.05
2023-02-28T11:44:59.907Z,6.03
2023-02-28T11:50:27.218Z,6.40
2023-02-28T11:55:29.669Z,6.75
2023-02-28T12:00:39.871Z,7.38
2023-02-28T12:05:55.836Z,6.03
2023-02-28T12:11:10.670Z,6.70
2023-02-28T12:16:39.239Z,6.93
2023-02-28T12:22:02.743Z,5.82
2023-02-28T12:32:10.393Z,6.57
2023-02-28T12:37:17.827Z,5.90
2023-02-28T12:42:29.493Z,6.30
2023-02-28T12:47:26.001Z,6.75
2023-02-28T12:52:32.477Z,7.63
2023-02-28T12:57:35.134Z,6.97
2023-02-28T13:03:12.054Z,6.80
2023-02-28T13:08:37.813Z,6.80
2023-02-28T13:13:35.575Z,6.07
2023-02-28T13:18:41.052Z,6.15
2023-02-28T13:23:56.760Z,6.40
2023-02-28T13:28:54.643Z,6.53
2023-02-28T13:33:58.071Z,6.63
2023-02-28T13:39:01.364Z,6.40
2023-02-28T13:44:29.746Z,6.15
2023-02-28T13:49:33.180Z,6.07
2023-02-28T13:54:41.740Z,5.90
2023-02-28T14:00:00.045Z,6.63
2023-02-28T14:10:31.650Z,6.80
2023-02-28T14:15:34.038Z,6.00
2023-02-28T14:25:48.720Z,5.75
2023-02-28T14:30:58.324Z,6.22
2023-02-28T14:36:03.813Z,6.57
2023-02-28T14:41:07.021Z,5.88
2023-02-28T14:46:07.334Z,6.65
2023-02-28T14:51:03.819Z,5.93
2023-02-28T14:56:01.180Z,5.80
2023-02-28T15:01:00.968Z,6.25
2023-02-28T15:06:18.867Z,5.97
2023-02-28T15:11:20.078Z,6.18
2023-02-28T15:16:23.359Z,5.75
2023-02-28T15:21:24.341Z,5.93
2023-02-28T15:26:26.034Z,6.20
2023-02-28T15:31:43.808Z,6.00
2023-02-28T15:36:46.963Z,5.93
2023-02-28T15:41:43.400Z,5.80
2023-02-28T15:46:44.184Z,6.35
2023-02-28T15:51:40.739Z,5.60
2023-02-28T15:56:45.427Z,6.30
2023-02-28T16:01:41.907Z,5.90
2023-02-28T16:06:43.230Z,5.65
2023-02-28T16:11:46.247Z,6.25
2023-02-28T16:16:44.980Z,5.82
2023-02-28T16:21:41.451Z,5.35
2023-02-28T16:26:40.669Z,5.38
2023-02-28T16:31:39.002Z,5.10
2023-02-28T16:36:35.459Z,5.90
2023-02-28T16:41:32.441Z,5.65
2023-02-28T16:46:34.405Z,7.07
2023-02-28T16:51:33.393Z,7.27
2023-02-28T16:56:31.003Z,5.95
2023-02-28T17:01:28.845Z,6.70
2023-02-28T17:06:31.500Z,6.07
2023-02-28T17:11:28.698Z,6.47
2023-02-28T17:16:36.505Z,6.40
2023-02-28T17:21:35.018Z,6.35
2023-02-28T17:26:32.281Z,6.40
2023-02-28T17:31:30.128Z,6.55
2023-02-28T17:36:27.592Z,7.00
2023-02-28T17:41:25.292Z,7.20
2023-02-28T17:46:24.646Z,8.10
2023-02-28T17:51:23.557Z,6.85
2023-02-28T17:56:25.915Z,7.00
2023-02-28T18:01:23.672Z,7.90
2023-02-28T18:06:34.452Z,7.13
2023-02-28T18:11:43.457Z,7.85
2023-02-28T18:16:39.995Z,6.82
2023-02-28T18:21:36.429Z,7.20
2023-02-28T18:26:33.004Z,7.10
2023-02-28T18:31:29.627Z,7.25
2023-02-28T18:36:27.508Z,6.90
2023-02-28T18:41:24.294Z,7.57
2023-02-28T18:46:21.990Z,7.20
2023-02-28T18:51:21.035Z,7.07
2023-02-28T18:56:20.320Z,7.15
2023-02-28T19:01:20.950Z,6.70
2023-02-28T19:06:18.771Z,6.60
2023-02-28T19:11:17.886Z,7.22
2023-02-28T19:16:16.502Z,7.07
2023-02-28T19:21:15.226Z,7.53
2023-02-28T19:26:14.352Z,7.28
2023-02-28T19:31:20.745Z,7.88
2023-02-28T19:36:17.273Z,7.95
2023-02-28T19:41:15.389Z,9.30
2023-02-28T19:46:12.434Z,8.18
2023-02-28T19:51:12.383Z,8.25
2023-02-28T19:56:09.990Z,8.40
2023-02-28T20:01:08.764Z,8.35
2023-02-28T20:06:09.743Z,7.50
2023-02-28T20:11:10.213Z,8.55
2023-02-28T20:16:09.577Z,8.55
2023-02-28T20:21:09.162Z,8.45
2023-02-28T20:26:05.881Z,9.32
2023-02-28T20:31:02.487Z,8.48
2023-02-28T20:36:05.225Z,9.38
2023-02-28T20:41:02.059Z,9.52
2023-02-28T20:46:01.807Z,8.80
2023-02-28T20:50:59.607Z,9.18
2023-02-28T20:55:57.184Z,9.25
2023-02-28T21:01:25.957Z,9.27
2023-02-28T21:06:26.394Z,9.73
2023-02-28T21:11:28.514Z,8.85
2023-02-28T21:16:26.915Z,9.77
2023-02-28T21:21:25.189Z,9.40
2023-02-28T21:26:23.798Z,10.75
2023-02-28T21:31:22.057Z,9.35
2023-02-28T21:36:20.934Z,9.57
2023-02-28T21:41:20.496Z,9.52
2023-02-28T21:46:20.885Z,10.45
2023-02-28T21:51:26.565Z,10.02
2023-02-28T21:56:25.522Z,10.95
2023-02-28T22:01:22.382Z,11.77
2023-02-28T22:06:22.674Z,11.05
2023-02-28T22:11:20.207Z,11.15
2023-02-28T22:16:19.634Z,10.63
2023-02-28T22:21:18.208Z,11.60
2023-02-28T22:26:20.127Z,10.35
2023-02-28T22:31:18.294Z,12.00
2023-02-28T22:36:17.138Z,11.38
2023-02-28T22:41:14.295Z,12.40
2023-02-28T22:46:13.507Z,13.23
2023-02-28T22:51:14.645Z,13.60
2023-02-28T22:56:12.504Z,13.57
2023-02-28T23:01:14.944Z,14.13
2023-02-28T23:11:22.499Z,15.57
2023-02-28T23:16:18.960Z,15.68
2023-02-28T23:21:15.467Z,15.85
2023-02-28T23:26:11.943Z,15.43
2023-02-28T23:31:08.454Z,15.50
2023-02-28T23:36:15.308Z,15.98
2023-02-28T23:41:13.951Z,14.77
2023-02-28T23:46:12.852Z,17.00
2023-02-28T23:51:16.708Z,16.58
2023-02-28T23:56:16.080Z,17.38
